createdAt,value
2022-11-05T00:01:53.412Z,101510.84
2022-11-05T00:04:38.705Z,101503.50
2022-11-05T00:07:36.441Z,101511.09
2022-11-05T00:10:12.302Z,101506.91
2022-11-05T00:12:57.399Z,101509.88
2022-11-05T00:15:42.259Z,101505.50
2022-11-05T00:18:08.797Z,101506.16
2022-11-05T00:20:35.277Z,101506.16
2022-11-05T00:23:21.250Z,101518.13
2022-11-05T00:25:58.258Z,101531.53
2022-11-05T00:28:26.018Z,101514.16
2022-11-05T00:30:52.800Z,101512.28
2022-11-05T00:33:19.328Z,101524.81
2022-11-05T00:35:45.802Z,101527.34
2022-11-05T00:38:12.278Z,101528.59
2022-11-05T00:40:39.085Z,101526.97
2022-11-05T00:43:24.362Z,101524.84
2022-11-05T00:45:50.829Z,101530.31
2022-11-05T00:48:35.789Z,101531.78
2022-11-05T00:51:02.279Z,101534.31
2022-11-05T00:53:28.876Z,101540.38
2022-11-05T00:55:55.330Z,101537.25
2022-11-05T00:58:22.621Z,101541.66
2022-11-05T01:00:54.368Z,101543.94
2022-11-05T01:03:24.114Z,101553.38
2022-11-05T01:05:53.681Z,101546.66
2022-11-05T01:08:22.180Z,101551.69
2022-11-05T01:10:51.300Z,101553.81
2022-11-05T01:13:23.592Z,101549.81
2022-11-05T01:15:50.913Z,101555.47
2022-11-05T01:18:18.285Z,101555.91
2022-11-05T01:20:44.811Z,101563.41
2022-11-05T01:23:13.776Z,101569.94
2022-11-05T01:25:41.834Z,101581.44
2022-11-05T01:28:09.589Z,101569.09
2022-11-05T01:30:37.773Z,101583.13
2022-11-05T01:33:04.349Z,101582.47
2022-11-05T01:35:30.815Z,101575.34
2022-11-05T01:37:57.278Z,101577.44
2022-11-05T01:40:24.623Z,101581.22
2022-11-05T01:42:51.235Z,101577.66
2022-11-05T01:45:26.819Z,101580.19
2022-11-05T01:47:59.360Z,101586.88
2022-11-05T01:50:34.463Z,101589.78
2022-11-05T01:53:11.228Z,101581.63
2022-11-05T01:55:44.616Z,101586.88
2022-11-05T01:58:15.166Z,101591.47
2022-11-05T02:00:42.835Z,101580.59
2022-11-05T02:03:09.891Z,101584.78
2022-11-05T02:05:37.044Z,101569.91
2022-11-05T02:08:03.725Z,101569.69
2022-11-05T02:10:30.605Z,101565.31
2022-11-05T02:12:57.121Z,101567.59
2022-11-05T02:15:36.650Z,101569.06
2022-11-05T02:18:40.984Z,101573.88
2022-11-05T02:21:43.070Z,101579.09
2022-11-05T02:24:47.420Z,101575.97
2022-11-05T02:27:29.199Z,101570.91
2022-11-05T02:30:06.469Z,101577.00
2022-11-05T02:33:11.288Z,101571.97
2022-11-05T02:35:45.703Z,101568.84
2022-11-05T02:38:28.146Z,101571.31
2022-11-05T02:41:04.952Z,101561.69
2022-11-05T02:43:44.653Z,101569.22
2022-11-05T02:46:34.626Z,101569.88
2022-11-05T02:49:17.152Z,101571.09
2022-11-05T02:51:58.205Z,101566.31
2022-11-05T02:54:32.794Z,101570.47
2022-11-05T02:57:00.944Z,101565.22
2022-11-05T02:59:27.402Z,101565.44
2022-11-05T03:01:54.483Z,101561.88
2022-11-05T03:04:23.425Z,101557.06
2022-11-05T03:07:17.186Z,101559.97
2022-11-05T03:10:09.805Z,101566.25
2022-11-05T03:13:05.329Z,101556.66
2022-11-05T03:15:52.599Z,101565.41
2022-11-05T03:18:39.407Z,101567.94
2022-11-05T03:21:11.743Z,101566.25
2022-11-05T03:23:50.747Z,101563.75
2022-11-05T03:26:26.322Z,101566.66
2022-11-05T03:29:06.988Z,101552.00
2022-11-05T03:31:35.196Z,101563.72
2022-11-05T03:34:04.231Z,101569.75
2022-11-05T03:36:52.970Z,101573.38
2022-11-05T03:39:42.838Z,101572.91
2022-11-05T03:42:15.214Z,101567.88
2022-11-05T03:44:49.430Z,101566.00
2022-11-05T03:47:21.012Z,101562.84
2022-11-05T03:50:17.521Z,101573.56
2022-11-05T03:52:54.635Z,101572.22
2022-11-05T03:55:26.041Z,101574.31
2022-11-05T03:57:55.555Z,101579.16
2022-11-05T04:00:23.300Z,101578.25
2022-11-05T04:02:50.170Z,101574.09
2022-11-05T04:05:16.842Z,101574.47
2022-11-05T04:08:14.330Z,101579.91
2022-11-05T04:11:07.271Z,101572.38
2022-11-05T04:13:33.789Z,101578.25
2022-11-05T04:16:18.861Z,101587.22
2022-11-05T04:18:45.334Z,101586.19
2022-11-05T04:21:30.467Z,101594.09
2022-11-05T04:24:09.301Z,101596.81
2022-11-05T04:26:41.786Z,101601.22
2022-11-05T04:29:26.711Z,101593.44
2022-11-05T04:31:53.642Z,101599.09
2022-11-05T04:34:21.953Z,101594.06
2022-11-05T04:36:49.716Z,101601.13
2022-11-05T04:39:17.498Z,101601.38
2022-11-05T04:41:44.807Z,101604.31
2022-11-05T04:44:11.264Z,101599.06
2022-11-05T04:46:37.735Z,101598.66
2022-11-05T04:49:04.248Z,101593.59
2022-11-05T04:51:30.774Z,101605.72
2022-11-05T04:53:57.315Z,101614.09
2022-11-05T04:56:25.106Z,101606.09
2022-11-05T04:58:51.850Z,101607.72
2022-11-05T05:01:21.038Z,101609.38
2022-11-05T05:03:48.916Z,101613.59
2022-11-05T05:06:16.065Z,101610.25
2022-11-05T05:08:42.612Z,101609.81
2022-11-05T05:11:14.894Z,101616.06
2022-11-05T05:13:41.417Z,101611.25
2022-11-05T05:16:09.935Z,101625.28
2022-11-05T05:18:36.445Z,101621.75
2022-11-05T05:21:21.714Z,101632.84
2022-11-05T05:23:48.535Z,101629.44
2022-11-05T05:26:16.132Z,101635.28
2022-11-05T05:28:42.633Z,101629.28
2022-11-05T05:31:09.268Z,101629.22
2022-11-05T05:33:35.752Z,101627.56
2022-11-05T05:36:07.013Z,101637.34
2022-11-05T05:38:36.575Z,101625.59
2022-11-05T05:41:03.215Z,101636.91
2022-11-05T05:43:33.642Z,101643.16
2022-11-05T05:46:04.290Z,101641.47
2022-11-05T05:48:31.086Z,101631.84
2022-11-05T05:51:06.266Z,101643.56
2022-11-05T05:53:33.170Z,101631.84
2022-11-05T05:56:00.396Z,101635.16
2022-11-05T05:58:31.578Z,101645.59
2022-11-05T06:01:01.446Z,101641.75
2022-11-05T06:03:27.931Z,101650.56
2022-11-05T06:05:59.155Z,101647.03
2022-11-05T06:08:25.618Z,101641.38
2022-11-05T06:10:52.417Z,101639.88
2022-11-05T06:13:18.986Z,101645.88
2022-11-05T06:15:45.512Z,101646.03
2022-11-05T06:18:12.050Z,101647.97
2022-11-05T06:20:38.529Z,101649.00
2022-11-05T06:23:05.011Z,101647.78
2022-11-05T06:25:31.487Z,101645.78
2022-11-05T06:27:58.034Z,101649.97
2022-11-05T06:30:24.532Z,101654.13
2022-11-05T06:32:50.997Z,101646.41
2022-11-05T06:35:17.491Z,101657.03
2022-11-05T06:37:43.966Z,101659.16
2022-11-05T06:40:10.615Z,101658.38
2022-11-05T06:42:37.114Z,101660.88
2022-11-05T06:45:03.750Z,101652.50
2022-11-05T06:47:30.232Z,101653.13
2022-11-05T06:49:57.323Z,101657.94
2022-11-05T06:52:23.774Z,101658.56
2022-11-05T06:54:50.321Z,101653.28
2022-11-05T06:57:16.776Z,101659.59
2022-11-05T06:59:43.252Z,101661.50
2022-11-05T07:02:13.401Z,101667.09
2022-11-05T07:04:39.941Z,101674.63
2022-11-05T07:07:06.404Z,101667.50
2022-11-05T07:09:32.968Z,101674.22
2022-11-05T07:11:59.477Z,101671.25
2022-11-05T07:14:25.945Z,101677.34
2022-11-05T07:16:52.421Z,101674.31
2022-11-05T07:19:18.884Z,101669.91
2022-11-05T07:21:45.918Z,101679.19
2022-11-05T07:24:14.267Z,101676.38
2022-11-05T07:26:41.095Z,101690.59
2022-11-05T07:29:07.688Z,101687.13
2022-11-05T07:31:34.170Z,101692.78
2022-11-05T07:34:00.929Z,101692.16
2022-11-05T07:36:27.405Z,101692.78
2022-11-05T07:38:58.965Z,101694.69
2022-11-05T07:41:26.795Z,101699.03
2022-11-05T07:43:53.261Z,101706.78
2022-11-05T07:46:19.713Z,101706.00
2022-11-05T07:48:46.187Z,101701.81
2022-11-05T07:51:12.667Z,101697.47
2022-11-05T07:53:44.063Z,101705.25
2022-11-05T07:56:12.816Z,101702.31
2022-11-05T07:58:39.287Z,101701.75
2022-11-05T08:01:07.164Z,101703.22
2022-11-05T08:03:34.267Z,101705.75
2022-11-05T08:06:00.923Z,101704.94
2022-11-05T08:08:27.395Z,101706.63
2022-11-05T08:10:53.875Z,101712.34
2022-11-05T08:13:20.399Z,101705.88
2022-11-05T08:15:47.003Z,101703.78
2022-11-05T08:18:17.588Z,101712.59
2022-11-05T08:20:45.124Z,101713.22
2022-11-05T08:23:12.115Z,101704.50
2022-11-05T08:25:39.703Z,101696.34
2022-11-05T08:28:10.295Z,101709.34
2022-11-05T08:30:36.785Z,101703.91
2022-11-05T08:33:09.141Z,101696.13
2022-11-05T08:35:38.012Z,101710.22
2022-11-05T08:38:06.443Z,101709.81
2022-11-05T08:40:34.615Z,101714.84
2022-11-05T08:43:03.274Z,101715.50
2022-11-05T08:45:30.308Z,101711.56
2022-11-05T08:48:09.504Z,101720.16
2022-11-05T08:50:37.214Z,101713.25
2022-11-05T08:53:04.942Z,101710.78
2022-11-05T08:55:31.899Z,101713.97
2022-11-05T08:58:00.458Z,101713.75
2022-11-05T09:00:28.083Z,101711.69
2022-11-05T09:02:54.863Z,101710.06
2022-11-05T09:05:21.436Z,101713.41
2022-11-05T09:07:47.927Z,101710.94
2022-11-05T09:10:14.559Z,101713.25
2022-11-05T09:12:41.070Z,101708.06
2022-11-05T09:15:08.063Z,101711.84
2022-11-05T09:17:34.963Z,101712.69
2022-11-05T09:20:02.192Z,101699.09
2022-11-05T09:22:28.743Z,101716.31
2022-11-05T09:24:55.248Z,101712.78
2022-11-05T09:27:21.725Z,101708.19
2022-11-05T09:29:48.250Z,101706.34
2022-11-05T09:32:18.463Z,101701.31
2022-11-05T09:34:45.364Z,101702.59
2022-11-05T09:37:12.282Z,101714.81
2022-11-05T09:39:38.751Z,101718.16
2022-11-05T09:42:08.920Z,101716.88
2022-11-05T09:44:44.714Z,101731.16
2022-11-05T09:47:17.714Z,101729.31
2022-11-05T09:49:51.662Z,101725.34
2022-11-05T09:52:25.592Z,101728.06
2022-11-05T09:54:54.151Z,101742.09
2022-11-05T09:57:25.524Z,101737.31
2022-11-05T09:59:58.721Z,101733.34
2022-11-05T10:02:35.247Z,101745.94
2022-11-05T10:05:09.934Z,101748.25
2022-11-05T10:07:47.454Z,101744.69
2022-11-05T10:10:48.922Z,101747.66
2022-11-05T10:14:00.212Z,101753.75
2022-11-05T10:16:31.301Z,101750.59
2022-11-05T10:19:24.417Z,101755.84
2022-11-05T10:22:06.860Z,101763.59
2022-11-05T10:24:33.959Z,101761.72
2022-11-05T10:27:00.619Z,101760.25
2022-11-05T10:29:30.143Z,101766.34
2022-11-05T10:31:58.261Z,101771.34
2022-11-05T10:34:33.436Z,101771.13
2022-11-05T10:37:00.424Z,101765.47
2022-11-05T10:39:30.031Z,101756.69
2022-11-05T10:42:05.647Z,101767.16
2022-11-05T10:44:48.463Z,101763.81
2022-11-05T10:47:49.943Z,101771.75
2022-11-05T10:50:24.077Z,101769.88
2022-11-05T10:52:59.550Z,101762.09
2022-11-05T10:55:51.552Z,101754.78
2022-11-05T10:58:20.046Z,101750.59
2022-11-05T11:01:02.490Z,101759.19
2022-11-05T11:03:34.931Z,101766.75
2022-11-05T11:06:04.691Z,101757.06
2022-11-05T11:08:35.520Z,101763.75
2022-11-05T11:11:10.331Z,101753.91
2022-11-05T11:13:51.385Z,101758.75
2022-11-05T11:16:24.613Z,101761.47
2022-11-05T11:19:02.991Z,101749.50
2022-11-05T11:21:31.714Z,101754.94
2022-11-05T11:23:58.260Z,101749.66
2022-11-05T11:26:28.693Z,101742.75
2022-11-05T11:29:15.980Z,101745.69
2022-11-05T11:31:42.646Z,101729.94
2022-11-05T11:34:28.094Z,101731.81
2022-11-05T11:37:08.606Z,101739.78
2022-11-05T11:39:37.198Z,101738.94
2022-11-05T11:42:11.586Z,101744.97
2022-11-05T11:44:44.356Z,101750.59
2022-11-05T11:47:14.654Z,101752.03
2022-11-05T11:49:50.117Z,101750.09
2022-11-05T11:52:29.015Z,101741.63
2022-11-05T11:55:11.913Z,101735.47
2022-11-05T11:57:53.723Z,101741.25
2022-11-05T12:00:23.928Z,101737.56
2022-11-05T12:03:25.918Z,101733.28
2022-11-05T12:06:21.193Z,101733.84
2022-11-05T12:09:20.356Z,101729.78
2022-11-05T12:12:14.290Z,101732.69
2022-11-05T12:15:09.722Z,101733.50
2022-11-05T12:17:43.571Z,101739.59
2022-11-05T12:20:23.296Z,101736.94
2022-11-05T12:23:17.552Z,101739.41
2022-11-05T12:26:02.825Z,101746.63
2022-11-05T12:29:16.619Z,101729.59
2022-11-05T12:31:47.653Z,101728.94
2022-11-05T12:34:43.315Z,101726.75
2022-11-05T12:37:38.158Z,101712.00
2022-11-05T12:40:32.367Z,101715.34
2022-11-05T12:43:20.015Z,101707.44
2022-11-05T12:46:34.707Z,101712.06
2022-11-05T12:49:22.302Z,101709.78
2022-11-05T12:52:01.604Z,101708.34
2022-11-05T12:55:03.140Z,101708.78
2022-11-05T12:57:32.025Z,101702.25
2022-11-05T13:00:11.093Z,101694.69
2022-11-05T13:02:41.007Z,101680.63
2022-11-05T13:05:23.453Z,101685.38
2022-11-05T13:08:07.540Z,101688.13
2022-11-05T13:10:40.908Z,101677.19
2022-11-05T13:13:18.824Z,101678.25
2022-11-05T13:15:59.232Z,101682.66
2022-11-05T13:18:31.094Z,101684.34
2022-11-05T13:20:58.576Z,101668.69
2022-11-05T13:23:39.560Z,101666.13
2022-11-05T13:26:19.406Z,101663.38
2022-11-05T13:29:04.908Z,101654.34
2022-11-05T13:31:41.802Z,101661.88
2022-11-05T13:34:13.005Z,101655.78
2022-11-05T13:37:19.766Z,101649.88
2022-11-05T13:39:56.350Z,101649.63
2022-11-05T13:42:44.527Z,101642.03
2022-11-05T13:45:35.980Z,101652.16
2022-11-05T13:48:20.747Z,101647.53
2022-11-05T13:50:56.309Z,101640.38
2022-11-05T13:53:42.569Z,101639.53
2022-11-05T13:56:32.934Z,101639.31
2022-11-05T13:59:14.514Z,101631.94
2022-11-05T14:01:59.665Z,101643.69
2022-11-05T14:04:31.872Z,101650.84
2022-11-05T14:07:24.735Z,101645.38
2022-11-05T14:09:57.146Z,101650.84
2022-11-05T14:12:35.247Z,101645.38
2022-11-05T14:15:21.414Z,101658.00
2022-11-05T14:18:06.351Z,101646.84
2022-11-05T14:20:32.760Z,101644.91
2022-11-05T14:23:17.596Z,101645.75
2022-11-05T14:25:44.009Z,101640.28
2022-11-05T14:28:35.197Z,101641.13
2022-11-05T14:31:47.269Z,101639.22
2022-11-05T14:34:13.636Z,101641.59
2022-11-05T14:36:41.857Z,101629.81
2022-11-05T14:39:25.135Z,101636.94
2022-11-05T14:42:02.959Z,101639.31
2022-11-05T14:44:32.842Z,101646.69
2022-11-05T14:47:04.460Z,101642.03
2022-11-05T14:49:49.104Z,101652.16
2022-11-05T14:52:18.249Z,101654.88
2022-11-05T14:54:56.931Z,101650.00
2022-11-05T14:57:41.910Z,101643.25
2022-11-05T15:00:29.952Z,101653.97
2022-11-05T15:03:02.106Z,101647.28
2022-11-05T15:05:33.147Z,101644.31
2022-11-05T15:08:19.950Z,101631.47
2022-11-05T15:10:48.957Z,101644.09
2022-11-05T15:13:30.323Z,101638.63
2022-11-05T15:15:58.441Z,101637.16
2022-11-05T15:18:39.859Z,101633.16
2022-11-05T15:21:09.033Z,101637.78
2022-11-05T15:23:43.224Z,101636.94
2022-11-05T15:26:25.798Z,101633.97
2022-11-05T15:28:54.529Z,101628.75
2022-11-05T15:31:37.222Z,101634.69
2022-11-05T15:34:35.407Z,101628.50
2022-11-05T15:37:12.282Z,101625.38
2022-11-05T15:39:40.567Z,101625.63
2022-11-05T15:42:12.287Z,101628.59
2022-11-05T15:44:47.077Z,101623.34
2022-11-05T15:47:42.675Z,101617.25
2022-11-05T15:50:15.410Z,101622.94
2022-11-05T15:52:50.783Z,101622.28
2022-11-05T15:55:25.334Z,101627.38
2022-11-05T15:58:03.068Z,101625.31
2022-11-05T16:00:33.047Z,101625.31
2022-11-05T16:03:15.808Z,101621.50
2022-11-05T16:05:45.011Z,101616.50
2022-11-05T16:08:16.787Z,101619.00
2022-11-05T16:10:46.212Z,101625.16
2022-11-05T16:13:34.599Z,101623.13
2022-11-05T16:16:25.358Z,101613.69
2022-11-05T16:18:52.689Z,101612.00
2022-11-05T16:21:22.645Z,101609.50
2022-11-05T16:23:49.148Z,101601.31
2022-11-05T16:27:01.301Z,101603.78
2022-11-05T16:29:29.479Z,101596.69
2022-11-05T16:31:57.704Z,101603.00
2022-11-05T16:34:29.960Z,101597.09
2022-11-05T16:36:58.941Z,101604.25
2022-11-05T16:39:26.574Z,101604.25
2022-11-05T16:41:53.201Z,101592.09
2022-11-05T16:44:19.675Z,101597.53
2022-11-05T16:46:49.875Z,101599.03
2022-11-05T16:49:17.321Z,101594.38
2022-11-05T16:51:44.425Z,101599.03
2022-11-05T16:54:10.935Z,101600.47
2022-11-05T16:56:39.807Z,101603.19
2022-11-05T16:59:09.355Z,101596.31
2022-11-05T17:01:39.292Z,101589.53
2022-11-05T17:04:05.893Z,101592.25
2022-11-05T17:06:32.363Z,101594.78
2022-11-05T17:08:58.856Z,101597.94
2022-11-05T17:11:25.405Z,101599.84
2022-11-05T17:13:51.865Z,101601.53
2022-11-05T17:16:18.391Z,101602.16
2022-11-05T17:18:44.961Z,101609.28
2022-11-05T17:21:12.568Z,101603.28
2022-11-05T17:23:39.997Z,101597.81
2022-11-05T17:26:09.773Z,101595.69
2022-11-05T17:28:37.744Z,101599.41
2022-11-05T17:31:07.574Z,101590.84
2022-11-05T17:33:34.410Z,101590.22
2022-11-05T17:36:05.902Z,101599.25
2022-11-05T17:38:32.350Z,101602.19
2022-11-05T17:40:58.821Z,101595.69
2022-11-05T17:43:25.320Z,101602.00
2022-11-05T17:45:52.479Z,101612.34
2022-11-05T17:48:20.280Z,101603.03
2022-11-05T17:50:49.979Z,101608.38
2022-11-05T17:53:18.078Z,101608.97
2022-11-05T17:55:46.086Z,101612.56
2022-11-05T17:58:13.049Z,101618.03
2022-11-05T18:00:40.768Z,101619.31
2022-11-05T18:03:07.319Z,101618.03
2022-11-05T18:05:34.599Z,101634.66
2022-11-05T18:08:01.285Z,101631.69
2022-11-05T18:10:27.761Z,101630.00
2022-11-05T18:12:54.243Z,101622.06
2022-11-05T18:15:20.926Z,101628.56
2022-11-05T18:17:47.536Z,101625.84
2022-11-05T18:20:18.860Z,101624.16
2022-11-05T18:22:48.686Z,101608.22
2022-11-05T18:25:15.925Z,101617.00
2022-11-05T18:27:42.688Z,101611.41
2022-11-05T18:30:10.973Z,101623.56
2022-11-05T18:32:37.447Z,101618.31
2022-11-05T18:35:04.123Z,101610.31
2022-11-05T18:37:30.598Z,101612.00
2022-11-05T18:39:57.067Z,101606.78
2022-11-05T18:42:25.289Z,101609.09
2022-11-05T18:44:51.921Z,101620.88
2022-11-05T18:47:18.429Z,101628.88
2022-11-05T18:49:44.881Z,101630.75
2022-11-05T18:52:11.498Z,101617.94
2022-11-05T18:54:38.009Z,101615.03
2022-11-05T18:57:04.488Z,101623.22
2022-11-05T18:59:37.781Z,101613.41
2022-11-05T19:02:06.347Z,101613.81
2022-11-05T19:04:35.385Z,101612.16
2022-11-05T19:07:05.145Z,101614.06
2022-11-05T19:09:36.809Z,101609.63
2022-11-05T19:12:04.387Z,101608.19
2022-11-05T19:14:31.011Z,101592.91
2022-11-05T19:16:58.956Z,101599.81
2022-11-05T19:19:25.806Z,101592.09
2022-11-05T19:21:52.411Z,101586.22
2022-11-05T19:24:19.139Z,101579.09
2022-11-05T19:26:46.651Z,101581.56
2022-11-05T19:29:13.178Z,101586.00
2022-11-05T19:31:39.639Z,101571.09
2022-11-05T19:34:06.129Z,101584.75
2022-11-05T19:36:33.351Z,101576.19
2022-11-05T19:39:06.297Z,101587.50
2022-11-05T19:41:32.967Z,101577.47
2022-11-05T19:44:01.426Z,101577.47
2022-11-05T19:46:29.081Z,101564.03
2022-11-05T19:48:56.262Z,101551.63
2022-11-05T19:51:25.635Z,101550.59
2022-11-05T19:53:53.425Z,101553.13
2022-11-05T19:56:22.625Z,101555.09
2022-11-05T19:58:49.478Z,101544.75
2022-11-05T20:01:17.968Z,101551.06
2022-11-05T20:03:44.741Z,101542.03
2022-11-05T20:06:17.312Z,101554.00
2022-11-05T20:09:07.041Z,101540.22
2022-11-05T20:11:31.070Z,101545.88
2022-11-05T20:13:57.744Z,101552.41
2022-11-05T20:16:32.106Z,101551.59
2022-11-05T20:18:58.575Z,101551.13
2022-11-05T20:21:25.046Z,101554.09
2022-11-05T20:23:51.595Z,101547.78
2022-11-05T20:26:18.063Z,101545.88
2022-11-05T20:28:45.516Z,101542.78
2022-11-05T20:31:15.584Z,101538.97
2022-11-05T20:33:43.170Z,101546.13
2022-11-05T20:36:13.629Z,101545.50
2022-11-05T20:38:40.426Z,101534.19
2022-11-05T20:41:09.153Z,101549.28
2022-11-05T20:43:36.229Z,101536.91
2022-11-05T20:46:02.947Z,101545.13
2022-11-05T20:48:34.315Z,101549.75
2022-11-05T20:51:05.747Z,101549.75
2022-11-05T20:53:32.301Z,101543.22
2022-11-05T20:56:01.467Z,101554.16
2022-11-05T20:58:31.688Z,101554.81
2022-11-05T21:00:58.176Z,101544.09
2022-11-05T21:03:24.719Z,101558.97
2022-11-05T21:05:59.815Z,101565.28
2022-11-05T21:08:27.377Z,101569.75
2022-11-05T21:10:55.061Z,101563.47
2022-11-05T21:13:22.401Z,101573.09
2022-11-05T21:15:51.399Z,101574.16
2022-11-05T21:18:19.232Z,101571.41
2022-11-05T21:20:46.717Z,101569.31
2022-11-05T21:23:14.168Z,101570.59
2022-11-05T21:25:41.522Z,101576.72
2022-11-05T21:28:10.745Z,101563.66
2022-11-05T21:30:41.404Z,101563.06
2022-11-05T21:33:08.827Z,101569.38
2022-11-05T21:35:39.901Z,101564.13
2022-11-05T21:38:06.788Z,101556.38
2022-11-05T21:40:33.265Z,101551.75
2022-11-05T21:42:59.725Z,101556.84
2022-11-05T21:45:26.193Z,101548.63
2022-11-05T21:47:52.683Z,101548.41
2022-11-05T21:50:21.946Z,101540.88
2022-11-05T21:53:06.978Z,101541.72
2022-11-05T21:55:51.679Z,101535.41
2022-11-05T21:58:36.581Z,101537.94
2022-11-05T22:01:03.753Z,101533.75
2022-11-05T22:03:30.238Z,101518.25
2022-11-05T22:05:57.019Z,101527.00
2022-11-05T22:08:23.506Z,101526.81
2022-11-05T22:10:50.011Z,101524.09
2022-11-05T22:13:16.502Z,101514.47
2022-11-05T22:15:42.969Z,101516.13
2022-11-05T22:18:09.719Z,101518.63
2022-11-05T22:20:39.675Z,101522.84
2022-11-05T22:23:10.860Z,101519.66
2022-11-05T22:25:37.936Z,101512.28
2022-11-05T22:28:04.557Z,101520.09
2022-11-05T22:30:34.532Z,101517.56
2022-11-05T22:33:01.373Z,101514.84
2022-11-05T22:35:28.301Z,101515.75
2022-11-05T22:37:54.772Z,101511.06
2022-11-05T22:40:23.955Z,101511.28
2022-11-05T22:42:50.758Z,101505.59
2022-11-05T22:45:17.333Z,101500.59
2022-11-05T22:47:43.795Z,101497.63
2022-11-05T22:50:10.716Z,101490.47
2022-11-05T22:52:37.235Z,101486.50
2022-11-05T22:55:06.080Z,101485.88
2022-11-05T22:57:32.802Z,101470.44
2022-11-05T22:59:59.326Z,101495.13
2022-11-05T23:02:25.941Z,101494.28
2022-11-05T23:04:52.504Z,101492.63
2022-11-05T23:07:37.533Z,101481.69
2022-11-05T23:10:22.828Z,101477.06
2022-11-05T23:12:49.317Z,101472.44
2022-11-05T23:15:34.380Z,101476.63
2022-11-05T23:18:20.162Z,101485.88
2022-11-05T23:21:05.090Z,101478.75
2022-11-05T23:23:50.080Z,101471.16
2022-11-05T23:26:34.949Z,101460.91
2022-11-05T23:29:01.456Z,101456.50
2022-11-05T23:31:46.529Z,101444.81
2022-11-05T23:34:12.989Z,101447.53
2022-11-05T23:36:57.867Z,101443.75
2022-11-05T23:39:24.356Z,101444.38
2022-11-05T23:42:09.051Z,101452.78
2022-11-05T23:45:11.692Z,101445.25
2022-11-05T23:47:59.235Z,101442.53
2022-11-05T23:50:26.194Z,101443.56
2022-11-05T23:52:54.017Z,101446.94
2022-11-05T23:55:21.269Z,101444.19
2022-11-05T23:57:47.817Z,101441.47
